• Join FlightAware (Why Join?)
  • Login
  • US Flag 
09:44PM EST


 

Airport Tracker/Info


-or-


 

Live Flight TrackerFlight Track Log ✈ N401PS ✈ 03-Jun-2013 ✈ KEFD - 42J

Flight Track Log - Related Links

Times and Time Zones

All times are in EDT time to prevent confusion due to time zone crossing. See the N401PS flight status page for this flight to view local times or setup timezone preferences in your user account.

Time Position Orientation Groundspeed Altitude Reporting Facility
EDT Latitude Longitude Course Direction KTS MPH feet Rate Location/Type
01:47PM 29.6136 -95.1450 79° East 122 140 300  Level Houston Center
01:47PM 29.6192 -95.1133 79° East 132 152 1,200 420 Climbing Houston Center
01:49PM 29.6250 -95.0644 82° East 153 176 1,200 120 Level Houston Center
01:50PM 29.6367 -95.0172 74° East 149 171 1,500 300 Climbing Houston Center
01:51PM 29.6442 -94.9778 78° East 145 167 1,800 540 Climbing Houston Center
01:52PM 29.6503 -94.9314 81° East 141 162 2,600 780 Climbing Houston Center
01:53PM 29.6583 -94.8847 79° East 144 166 3,400 780 Climbing Houston Center
01:54PM 29.6686 -94.8378 76° East 145 167 4,300 720 Climbing Houston Center
01:55PM 29.6789 -94.7842 78° East 145 167 5,100 720 Climbing Houston Center
01:56PM 29.6850 -94.7467 79° East 147 169 5,800 720 Climbing Houston Center
01:56PM 29.6872 -94.7394 70° East 143 165 5,900 540 Climbing Houston Center
01:57PM 29.6933 -94.7022 79° East 138 159 6,400 480 Climbing Houston Center
01:57PM 29.6956 -94.6967 65° Northeast 140 161 6,400 480 Level Houston Center
01:58PM 29.7017 -94.6578 80° East 142 163 6,900 480 Climbing Houston Center
01:58PM 29.7036 -94.6522 68° East 143 165 6,900 480 Level Houston Center
01:59PM 29.7100 -94.6136 79° East 143 165 7,400 540 Climbing Houston Center
01:59PM 29.7142 -94.5972 74° East 147 169 7,500 60 Climbing Houston Center
02:00PM 29.7214 -94.5592 78° East 159 183 7,500  Level Houston Center
02:01PM 29.7306 -94.5025 79° East 173 199 7,500  Level Houston Center
02:02PM 29.7422 -94.4506 75° East 174 200 7,500  Level Houston Center
02:03PM 29.7519 -94.3986 78° East 175 201 7,500  Level Houston Center
02:03PM 29.7536 -94.3856 82° East 176 203 7,500  Level Houston Center
02:04PM 29.7611 -94.3419 79° East 175 201 7,500  Level Houston Center
02:04PM 29.7644 -94.3303 72° East 176 203 7,500  Level Houston Center
02:05PM 29.7725 -94.2875 78° East 175 201 7,500  Level Houston Center
02:05PM 29.7753 -94.2650 82° East 175 201 7,500  Level Houston Center
02:06PM 29.7836 -94.2306 74° East 176 203 7,500  Level Houston Center
02:06PM 29.7869 -94.2097 80° East 178 205 7,500  Level Houston Center
02:07PM 29.7922 -94.1717 81° East 179 206 7,500  Level Houston Center
02:07PM 29.7967 -94.1522 75° East 178 205 7,500  Level Houston Center
02:08PM 29.8036 -94.1172 77° East 178 205 7,500  Level Houston Center
02:08PM 29.8067 -94.0967 80° East 178 205 7,500  Level Houston Center
02:09PM 29.8142 -94.0556 78° East 179 206 7,500  Level Houston Center
02:09PM 29.8169 -94.0411 77° East 179 206 7,500  Level Houston Center
02:10PM 29.8269 -93.9842 79° East 182 209 7,500  Level Houston Center
02:11PM 29.8378 -93.9294 77° East 178 205 7,500  Level Houston Center
02:12PM 29.8494 -93.8642 78° East 175 201 7,500  Level Houston Center
02:13PM 29.8603 -93.8083 77° East 178 205 7,500  Level Houston Center
02:14PM 29.8697 -93.7528 79° East 178 205 7,500  Level Houston Center
02:15PM 29.8797 -93.6975 78° East 179 206 7,500  Level Houston Center
02:17PM 29.8900 -93.6419 78° East 178 205 7,500  Level Houston Center
02:18PM 29.8997 -93.5850 79° East 181 208 7,500  Level Houston Center
02:19PM 29.9117 -93.5183 78° East 179 206 7,500  Level Houston Center
02:20PM 29.9219 -93.4617 78° East 180 207 7,500  Level Houston Center
02:21PM 29.9319 -93.4056 78° East 180 207 7,500  Level Houston Center
02:22PM 29.9422 -93.3478 78° East 183 211 7,500  Level Houston Center
02:23PM 29.9525 -93.2914 78° East 182 209 7,500  Level Houston Center
02:24PM 29.9611 -93.2325 80° East 184 212 7,500  Level Houston Center
02:25PM 29.9736 -93.1650 78° East 180 207 7,500  Level Houston Center
02:26PM 29.9842 -93.1092 78° East 178 205 7,500  Level Houston Center
02:27PM 29.9939 -93.0531 79° East 179 206 7,500  Level Houston Center
02:28PM 30.0061 -92.9967 76° East 180 207 7,500  Level Houston Center
02:29PM 30.0203 -92.9411 74° East 181 208 7,500  Level Houston Center
02:30PM 30.0353 -92.8856 73° East 181 208 7,500  Level Houston Center
02:31PM 30.0544 -92.8178 72° East 185 213 7,500  Level Houston Center
02:32PM 30.0697 -92.7600 73° East 188 216 7,500  Level Houston Center
02:33PM 30.0856 -92.7036 72° East 186 214 7,500  Level Houston Center
02:34PM 30.0958 -92.6439 79° East 188 216 7,500  Level Houston Center
02:35PM 30.1033 -92.5842 82° East 190 219 7,500  Level Houston Center
02:36PM 30.1128 -92.5272 79° East 184 212 7,500  Level Houston Center
02:37PM 30.1247 -92.4572 79° East 185 213 7,500  Level Houston Center
02:38PM 30.1339 -92.3992 80° East 184 212 7,500  Level Houston Center
02:39PM 30.1439 -92.3406 79° East 185 213 7,500  Level Houston Center
02:40PM 30.1525 -92.2819 80° East 186 214 7,500  Level Houston Center
02:41PM 30.1625 -92.2236 79° East 185 213 7,500  Level Houston Center
02:42PM 30.1728 -92.1656 78° East 185 213 7,500  Level Houston Center
02:43PM 30.1839 -92.0967 79° East 184 212 7,500  Level Houston Center
02:44PM 30.1928 -92.0383 80° East 183 211 7,500  Level Houston Center
02:45PM 30.2017 -91.9806 80° East 184 212 7,500  Level Houston Center
02:46PM 30.2122 -91.9156 79° East 186 214 7,500  Level Houston Center
02:47PM 30.2219 -91.8572 79° East 185 213 7,500  Level Houston Center
02:48PM 30.2317 -91.8000 79° East 183 211 7,500  Level Houston Center
02:50PM 30.2406 -91.7431 80° East 183 211 7,500 60 Level Houston Center
02:51PM 30.2469 -91.6858 83° East 177 204 7,700 120 Climbing Houston Center
02:52PM 30.2508 -91.6289 85° East 177 204 7,800 120 Climbing Houston Center
02:53PM 30.2606 -91.5742 78° East 174 200 8,000 240 Climbing Houston Center
02:54PM 30.2703 -91.5106 80° East 169 194 8,300 240 Climbing Houston Center
02:55PM 30.2878 -91.4594 68° East 172 198 8,500 180 Climbing Houston Center
02:56PM 30.2828 -91.4022 96° East 177 204 8,700 180 Climbing Houston Center
02:57PM 30.2861 -91.3469 86° East 173 199 8,900 180 Climbing Houston Center
02:58PM 30.2892 -91.2903 86° East 178 205 9,100 180 Climbing Houston Center
02:59PM 30.2914 -91.2336 87° East 177 204 9,300 180 Climbing Houston Center
03:00PM 30.2950 -91.1631 87° East 178 205 9,500 60 Climbing Houston Center
03:01PM 30.2972 -91.1064 87° East 183 211 9,500  Level Houston Center
03:02PM 30.2981 -91.0483 89° East 182 209 9,500  Level Houston Center
03:03PM 30.3003 -90.9886 88° East 184 212 9,500  Level Houston Center
03:04PM 30.3019 -90.9319 88° East 186 214 9,500  Level Houston Center
03:05PM 30.3214 -90.8708 70° East 187 215 9,600  Climbing Houston Center
03:06PM 30.3386 -90.8150 70° East 184 212 9,600  Level Houston Center
03:07PM 30.3600 -90.7539 68° East 187 215 9,600 -60 Level Houston Center
03:08PM 30.3817 -90.7003 65° Northeast 184 212 9,500  Descending Houston Center
03:09PM 30.3883 -90.6397 83° East 185 213 9,600  Climbing Houston Center
03:10PM 30.3764 -90.5825 104° East 185 213 9,600  Level Houston Center
03:11PM 30.3603 -90.5275 109° East 182 209 9,600  Level Houston Center
03:12PM 30.3419 -90.4706 110° East 182 209 9,600 -60 Level Houston Center
03:13PM 30.3194 -90.4183 117° Southeast 182 209 9,500  Descending Houston Center
03:14PM 30.3031 -90.3586 108° East 181 208 9,600  Climbing Houston Center
03:15PM 30.2950 -90.3014 99° East 181 208 9,500 -180 Descending Houston Center
03:15PM 30.2958 -90.2956 81° East 180 207 9,400 -120 Descending Houston Center
03:16PM 30.2892 -90.2414 98° East 187 215 9,400  Level Houston Center
03:16PM 30.2906 -90.2361 73° East 185 213 9,400 -120 Level Houston Center
03:17PM 30.2831 -90.1814 99° East 189 217 9,300 -240 Descending Houston Center
03:17PM 30.2828 -90.1642 91° East 187 215 9,200 -120 Descending Houston Center
03:18PM 30.2792 -90.1214 96° East 191 220 9,200  Level Houston Center
03:18PM 30.2783 -90.1031 93° East 190 219 9,200 -120 Level Houston Center
03:19PM 30.2731 -90.0589 98° East 192 221 9,100 -120 Descending Houston Center
03:20PM 30.2725 -90.0425 92° East 190 219 9,100 -120 Level Houston Center
03:20PM 30.2669 -89.9992 98° East 191 220 9,000 -120 Descending Houston Center
03:21PM 30.2647 -89.9822 99° East 191 220 9,000 -120 Level Houston Center
03:21PM 30.2564 -89.9344 101° East 192 221 8,900 -120 Descending Houston Center
03:22PM 30.2556 -89.9219 94° East 191 220 8,900 -120 Level Houston Center
03:22PM 30.2481 -89.8722 100° East 196 226 8,800 -120 Descending Houston Center
03:23PM 30.2469 -89.8600 96° East 195 224 8,800 -120 Level Houston Center
03:24PM 30.2333 -89.7881 102° East 195 224 8,700 -120 Descending Houston Center
03:25PM 30.2239 -89.7278 100° East 194 223 8,600 -120 Descending Houston Center
03:26PM 30.2222 -89.6669 92° East 192 221 8,500 -120 Descending Houston Center
03:27PM 30.2281 -89.6067 84° East 191 220 8,400 -120 Descending Houston Center
03:28PM 30.2286 -89.5344 89° East 189 217 8,300 -120 Descending Houston Center
03:29PM 30.2297 -89.4722 89° East 192 221 8,200 -120 Descending Houston Center
03:30PM 30.2383 -89.4092 81° East 198 228 8,100 -120 Descending Houston Center
03:31PM 30.2458 -89.3467 82° East 197 227 8,000 -120 Descending Houston Center
03:32PM 30.2525 -89.2844 83° East 197 227 7,900 -120 Descending Houston Center
03:33PM 30.2597 -89.2214 82° East 198 228 7,800 -120 Descending Houston Center
03:34PM 30.2683 -89.1464 82° East 197 227 7,700 -120 Descending Houston Center
03:35PM 30.2758 -89.0842 82° East 196 226 7,600 -120 Descending Houston Center
03:36PM 30.2825 -89.0228 83° East 194 223 7,500 -60 Descending Houston Center
03:37PM 30.2892 -88.9617 83° East 193 222 7,500  Level Houston Center
03:38PM 30.2953 -88.8953 84° East 191 220 7,500  Level Houston Center
03:39PM 30.3022 -88.8367 82° East 187 215 7,500  Level Houston Center
03:40PM 30.3092 -88.7764 82° East 188 216 7,500  Level Houston Center
03:41PM 30.3156 -88.7183 83° East 185 213 7,500  Level Houston Center
03:42PM 30.3231 -88.6456 83° East 189 217 7,500  Level Houston Center
03:43PM 30.3258 -88.5828 87° East 194 223 7,500  Level Houston Center
03:44PM 30.3278 -88.5225 88° East 191 220 7,500  Level Houston Center
03:45PM 30.3292 -88.4603 89° East 193 222 7,500  Level Houston Center
03:46PM 30.3314 -88.3981 88° East 195 224 7,500  Level Houston Center
03:47PM 30.3328 -88.3253 89° East 191 220 7,500  Level Houston Center
03:48PM 30.3350 -88.2625 88° East 194 223 7,500  Level Houston Center
03:49PM 30.3358 -88.2011 89° East 192 221 7,500  Level Houston Center
03:51PM 30.3372 -88.1392 88° East 194 223 7,500  Level Houston Center
03:52PM 30.3392 -88.0772 88° East 194 223 7,500  Level Houston Center
03:53PM 30.3406 -88.0150 89° East 194 223 7,500  Level Houston Center
03:54PM 30.3422 -87.9408 88° East 194 223 7,500  Level Houston Center
03:55PM 30.3436 -87.8808 88° East 189 217 7,500  Level Houston Center
03:56PM 30.3428 -87.8206 91° East 188 216 7,500  Level Houston Center
03:57PM 30.3419 -87.7578 91° East 194 223 7,500  Level Houston Center
03:58PM 30.3400 -87.6981 92° East 189 217 7,500  Level Houston Center
03:59PM 30.3369 -87.6231 93° East 196 226 7,500  Level Houston Center
04:00PM 30.3392 -87.5758 87° East 195 224 7,500  Level Jacksonville Center
04:01PM 30.3436 -87.5111 85° East 193 222 7,500  Level Jacksonville Center
04:02PM 30.3458 -87.4486 88° East 190 219 7,500  Level Jacksonville Center
04:03PM 30.3500 -87.3864 86° East 193 222 7,500  Level Jacksonville Center
04:04PM 30.3525 -87.3192 88° East 194 223 7,500  Level Jacksonville Center
04:05PM 30.3567 -87.2567 86° East 194 223 7,500  Level Jacksonville Center
04:06PM 30.3611 -87.1894 86° East 193 222 7,500  Level Jacksonville Center
04:07PM 30.3631 -87.1294 88° East 194 223 7,500  Level Jacksonville Center
04:08PM 30.3672 -87.0647 86° East 194 223 7,500  Level Jacksonville Center
04:09PM 30.3714 -87.0022 86° East 192 221 7,500  Level Jacksonville Center
04:11PM 30.3222 -86.9337 130° Southeast  Level FlightAware Approximate
04:18PM 30.2101 -86.5544 99° East  Level FlightAware Approximate
04:19PM 30.2021 -86.4989 99° East  Level FlightAware Approximate
04:20PM 30.1941 -86.4435 99° East  Level FlightAware Approximate
04:21PM 30.1861 -86.3880 100° East  Level FlightAware Approximate
04:22PM 30.1780 -86.3326 100° East  Level FlightAware Approximate
04:23PM 30.1699 -86.2772 100° East  Level FlightAware Approximate
04:24PM 30.1618 -86.2218 100° East  Level FlightAware Approximate
04:25PM 30.1537 -86.1664 100° East  Level FlightAware Approximate
04:26PM 30.1455 -86.1110 100° East  Level FlightAware Approximate
04:27PM 30.1373 -86.0556 100° East  Level FlightAware Approximate
04:28PM 30.1291 -86.0002 100° East  Level FlightAware Approximate
04:29PM 30.1209 -85.9448 100° East  Level FlightAware Approximate
04:30PM 30.1148 -85.8891 94° East  Level FlightAware Approximate
04:31PM 30.1110 -85.8331 94° East  Level FlightAware Approximate
04:32PM 30.1072 -85.7771 94° East  Level FlightAware Approximate
04:33PM 30.1034 -85.7211 94° East  Level FlightAware Approximate
04:34PM 30.0996 -85.6652 95° East  Level FlightAware Approximate
04:35PM 30.0957 -85.6092 95° East  Level FlightAware Approximate
04:36PM 30.0918 -85.5532 95° East  Level FlightAware Approximate
04:37PM 30.0879 -85.4972 95° East  Level FlightAware Approximate
04:38PM 30.0840 -85.4412 95° East  Level FlightAware Approximate
04:39PM 30.0800 -85.3853 95° East  Level FlightAware Approximate
04:40PM 30.0760 -85.3293 95° East  Level FlightAware Approximate
04:41PM 30.0720 -85.2733 95° East  Level FlightAware Approximate
04:42PM 30.0679 -85.2174 95° East  Level FlightAware Approximate
04:43PM 30.0639 -85.1614 95° East  Level FlightAware Approximate
04:44PM 30.0598 -85.1055 95° East  Level FlightAware Approximate
04:45PM 30.0557 -85.0495 95° East  Level FlightAware Approximate
04:46PM 30.0516 -84.9936 95° East  Level FlightAware Approximate
04:47PM 30.0474 -84.9377 95° East  Level FlightAware Approximate
04:48PM 30.0432 -84.8817 95° East  Level FlightAware Approximate
04:49PM 30.0390 -84.8258 95° East  Level FlightAware Approximate
04:50PM 30.0348 -84.7699 95° East  Level FlightAware Approximate
04:51PM 30.0306 -84.7140 95° East  Level FlightAware Approximate
04:52PM 30.0263 -84.6581 95° East  Level FlightAware Approximate
04:53PM 30.0220 -84.6022 95° East  Level FlightAware Approximate
04:54PM 30.0177 -84.5463 95° East  Level FlightAware Approximate
04:55PM 30.0141 -84.4903 94° East  Level FlightAware Approximate
04:56PM 30.0107 -84.4343 94° East  Level FlightAware Approximate
04:56PM 29.9311 -84.2756 94° East 190 219 7,500  Level Jacksonville Center
04:57PM 30.0074 -84.3784 94° East  Level FlightAware Approximate
04:57PM 29.9278 -84.2156 94° East 190 219 7,500  Level Jacksonville Center
04:58PM 30.0040 -84.3224 94° East  Level FlightAware Approximate
04:58PM 29.9261 -84.1603 92° East 190 219 7,500  Level Jacksonville Center
04:59PM 30.0005 -84.2664 94° East  Level FlightAware Approximate
04:59PM 29.9267 -84.0981 89° East 190 219 7,400  Level Jacksonville Center
05:00PM 29.9971 -84.2104 94° East  Level FlightAware Approximate
05:00PM 29.9231 -84.0406 94° East 190 219 7,400  Level Jacksonville Center
05:01PM 29.9936 -84.1545 94° East  Level FlightAware Approximate
05:01PM 29.9217 -83.9806 92° East 190 219 7,400  Level Jacksonville Center
05:02PM 29.9178 -83.9206 94° East 190 219 7,400  Level Jacksonville Center
05:03PM 29.9183 -83.8608 89° East 185 213 7,500  Climbing Jacksonville Center
05:04PM 29.9147 -83.8031 94° East 185 213 7,400 -60 Descending Jacksonville Center
05:05PM 29.9131 -83.7433 92° East 185 213 7,400  Level Jacksonville Center
05:06PM 29.9111 -83.6858 92° East 180 207 7,400  Level Jacksonville Center
05:07PM 29.9094 -83.6258 92° East 180 207 7,400 -60 Level Jacksonville Center
05:08PM 29.9078 -83.5658 92° East 180 207 7,300 -120 Descending Jacksonville Center
05:09PM 29.9039 -83.5036 94° East 180 207 7,200 -180 Descending Jacksonville Center
05:10PM 29.9019 -83.4436 94° East 180 207 7,000 -240 Descending Jacksonville Center
05:11PM 29.8983 -83.4097 94° East  Level FlightAware Approximate
05:11PM 29.9003 -83.3814 92° East 185 213 6,800  Level Jacksonville Center
05:12PM 29.8983 -83.3214 92° East 185 213 6,600 -300 Descending Jacksonville Center
05:13PM 29.8964 -83.2592 92° East 185 213 6,300 -300 Descending Jacksonville Center
05:14PM 29.8944 -83.1969 92° East 185 213 6,000 -300 Descending Jacksonville Center
05:15PM 29.8925 -83.1322 92° East 190 219 5,700 -300 Descending Jacksonville Center
05:15PM 29.8883 -83.1011 99° East 199 229 5,600 -240 Descending Jacksonville Center
05:16PM 29.8886 -83.0697 89° East 190 219 5,500 -360 Descending Jacksonville Center
05:17PM 29.8844 -83.0125 95° East 197 227 5,200 -540 Descending Jacksonville Center
05:18PM 29.8908 -82.9525 83° East 197 227 4,600 -600 Descending Jacksonville Center
05:19PM 29.8908 -82.8878 90° East 195 224 4,000 -600 Descending Jacksonville Center
05:20PM 29.8844 -82.8278 97° East 197 227 3,400 -540 Descending Jacksonville Center
05:21PM 29.8822 -82.7728 93° East 194 223 3,000 -360 Descending Jacksonville Center
05:21PM 29.8822 -82.7536 90° East 197 227 3,000 -240 Level Jacksonville Center
05:22PM 29.8803 -82.7081 93° East 182 209 2,800 -240 Descending Jacksonville Center
05:22PM 29.8781 -82.6961 102° East 183 211 2,800 -240 Level Jacksonville Center
05:23PM 29.8739 -82.6531 96° East 181 208 2,600 -240 Descending Jacksonville Center
05:24PM 29.8736 -82.5764 90° East 178 205 2,400 -240 Descending Jacksonville Center
05:25PM 29.8694 -82.5333 96° East 184 212 2,200 -240 Descending Jacksonville Center
05:26PM 29.8669 -82.4783 93° East 184 212 2,000 -240 Descending Jacksonville Center
05:27PM 29.8628 -82.4158 94° East 187 215 1,800 -240 Descending Jacksonville Center
05:28PM 29.8603 -82.3536 93° East 186 214 1,600 -240 Descending Jacksonville Center
05:29PM 29.8581 -82.2914 92° East 185 213 1,400 -240 Descending Jacksonville Center